Time;durP1;ratioP1;P1;durP2;ratioP2;P2;SDS_P1;SDS_P2;PMS_P1;PMS_P2;Temp;Humidity;BMP_temperature;BMP_pressure;BME280_temperature;BME280_humidity;BME280_pressure;Samples;Min_cycle;Max_cycle;Signal;HPM_P1;HPM_P2
2023/03/20 00:00:45;;;;;;;9.48;6.13;;;;;;;;;;5024014;28;20467;-82
2023/03/20 00:03:12;;;;;;;9.38;6.70;;;;;;;;;;5024486;28;20394;-82
2023/03/20 00:05:39;;;;;;;8.38;5.95;;;;;;;;;;5022674;28;20472;-84
2023/03/20 00:08:07;;;;;;;8.65;5.90;;;;;;;;;;5004844;28;20068;-83
2023/03/20 00:10:38;;;;;;;9.60;6.50;;;;;;;;;;5011253;28;20049;-81
2023/03/20 00:13:10;;;;;;;7.72;5.75;;;;;;;;;;5023942;28;20322;-82
2023/03/20 00:15:39;;;;;;;8.30;5.80;;;;;;;;;;5023524;28;20049;-84
2023/03/20 00:18:14;;;;;;;9.05;5.95;;;;;;;;;;5024230;28;20065;-82
2023/03/20 00:20:41;;;;;;;9.85;6.30;;;;;;;;;;5023335;28;20042;-82
2023/03/20 00:23:08;;;;;;;8.07;6.00;;;;;;;;;;5024245;28;20081;-82
2023/03/20 00:25:35;;;;;;;9.43;5.88;;;;;;;;;;5024221;28;20509;-81
2023/03/20 00:28:22;;;;;;;9.65;6.60;;;;;;;;;;5022768;28;20081;-81
2023/03/20 00:30:50;;;;;;;8.38;6.13;;;;;;;;;;5036674;28;20050;-84
2023/03/20 00:33:17;;;;;;;8.55;5.97;;;;;;;;;;5032960;28;20045;-83
2023/03/20 00:35:44;;;;;;;10.07;5.78;;;;;;;;;;5030300;28;20042;-84
2023/03/20 00:38:10;;;;;;;7.90;5.20;;;;;;;;;;5030843;28;20057;-81
2023/03/20 00:40:37;;;;;;;8.63;5.38;;;;;;;;;;5030965;28;20096;-83
2023/03/20 00:43:06;;;;;;;7.80;4.97;;;;;;;;;;5029629;28;20072;-83
2023/03/20 00:45:35;;;;;;;6.63;4.97;;;;;;;;;;5028046;28;20042;-81
2023/03/20 00:48:03;;;;;;;7.75;5.20;;;;;;;;;;5028010;28;20046;-82
2023/03/20 00:50:32;;;;;;;8.57;5.13;;;;;;;;;;5028227;28;20041;-82
2023/03/20 00:52:59;;;;;;;7.88;5.00;;;;;;;;;;5027413;28;20137;-82
2023/03/20 00:55:28;;;;;;;6.80;4.80;;;;;;;;;;5029609;28;20046;-82
2023/03/20 00:57:59;;;;;;;8.50;4.88;;;;;;;;;;5029265;28;20076;-83
2023/03/20 01:00:39;;;;;;;7.38;4.68;;;;;;;;;;5029726;28;20057;-83
2023/03/20 01:03:15;;;;;;;8.27;5.03;;;;;;;;;;5030101;28;20050;-83
2023/03/20 01:05:42;;;;;;;6.63;4.57;;;;;;;;;;5028883;28;20069;-83
2023/03/20 01:08:17;;;;;;;9.15;5.15;;;;;;;;;;5028505;28;20054;-84
2023/03/20 01:10:45;;;;;;;6.80;4.97;;;;;;;;;;5011464;28;20073;-83
2023/03/20 01:13:20;;;;;;;7.05;4.45;;;;;;;;;;5028002;28;20053;-82
2023/03/20 01:15:47;;;;;;;6.15;4.30;;;;;;;;;;5026875;28;20053;-82
2023/03/20 01:18:16;;;;;;;7.03;4.25;;;;;;;;;;5027240;28;20105;-83
2023/03/20 01:20:43;;;;;;;7.93;4.60;;;;;;;;;;5027251;28;20061;-82
2023/03/20 01:23:10;;;;;;;7.38;4.80;;;;;;;;;;5028490;28;20049;-83
2023/03/20 01:25:37;;;;;;;6.75;4.57;;;;;;;;;;5028776;28;20046;-84
2023/03/20 01:28:13;;;;;;;6.75;4.10;;;;;;;;;;5027698;28;20081;-84
2023/03/20 01:30:39;;;;;;;6.55;4.28;;;;;;;;;;5028253;28;20050;-84
2023/03/20 01:33:13;;;;;;;7.07;4.50;;;;;;;;;;5028904;28;20050;-83
2023/03/20 01:35:41;;;;;;;7.32;4.38;;;;;;;;;;5029027;28;20049;-83
2023/03/20 01:38:12;;;;;;;6.20;4.10;;;;;;;;;;5029702;28;20061;-82
2023/03/20 01:40:45;;;;;;;6.90;4.35;;;;;;;;;;5028832;28;20053;-83
2023/03/20 01:43:15;;;;;;;6.53;4.43;;;;;;;;;;5014100;28;20108;-83
2023/03/20 01:45:52;;;;;;;7.53;4.82;;;;;;;;;;5014109;28;20051;-82
2023/03/20 01:48:19;;;;;;;5.82;3.83;;;;;;;;;;5014993;28;20319;-82
2023/03/20 01:50:47;;;;;;;5.88;3.72;;;;;;;;;;5024985;28;20077;-82
2023/03/20 01:53:17;;;;;;;6.70;3.88;;;;;;;;;;5027598;28;20056;-83
2023/03/20 01:55:46;;;;;;;6.27;4.10;;;;;;;;;;5027286;28;20058;-84
2023/03/20 01:58:18;;;;;;;7.28;4.25;;;;;;;;;;5029610;28;20493;-84
2023/03/20 02:00:47;;;;;;;6.50;4.60;;;;;;;;;;5028349;28;20050;-83
2023/03/20 02:03:14;;;;;;;7.00;4.40;;;;;;;;;;5028593;28;20065;-82
2023/03/20 02:05:40;;;;;;;6.82;4.43;;;;;;;;;;5028392;28;20046;-81
2023/03/20 02:08:21;;;;;;;5.45;3.78;;;;;;;;;;5008569;28;20046;-83
2023/03/20 02:10:48;;;;;;;6.93;3.60;;;;;;;;;;5019878;28;20052;-81
2023/03/20 02:13:16;;;;;;;6.00;4.05;;;;;;;;;;5028174;28;20104;-83
2023/03/20 02:15:57;;;;;;;7.18;4.40;;;;;;;;;;5028056;28;20046;-84
2023/03/20 02:18:24;;;;;;;6.00;3.97;;;;;;;;;;5029640;28;20054;-83
2023/03/20 02:21:18;;;;;;;5.38;3.90;;;;;;;;;;5027835;28;20105;-83
2023/03/20 02:24:28;;;;;;;6.15;3.80;;;;;;;;;;5008522;28;20043;-82
2023/03/20 02:27:06;;;;;;;7.43;3.90;;;;;;;;;;5029939;28;20548;-83
2023/03/20 02:30:32;;;;;;;8.93;4.13;;;;;;;;;;5030332;28;20050;-84
2023/03/20 02:33:32;;;;;;;5.50;3.63;;;;;;;;;;4985704;28;20075;-84
2023/03/20 02:36:26;;;;;;;6.50;3.47;;;;;;;;;;5033433;28;20057;-83
2023/03/20 02:39:12;;;;;;;5.53;3.58;;;;;;;;;;5026028;28;20068;-82
2023/03/20 02:41:45;;;;;;;6.13;3.67;;;;;;;;;;5026293;28;20072;-82
2023/03/20 02:44:15;;;;;;;6.25;3.47;;;;;;;;;;5027303;28;20045;-82
2023/03/20 02:46:52;;;;;;;5.90;3.53;;;;;;;;;;5026144;28;20050;-82
2023/03/20 02:49:29;;;;;;;6.45;3.80;;;;;;;;;;5026511;28;20493;-82
2023/03/20 02:52:01;;;;;;;5.10;3.25;;;;;;;;;;5033749;28;20057;-84
2023/03/20 02:54:37;;;;;;;5.80;3.90;;;;;;;;;;5030811;28;20080;-83
2023/03/20 02:57:07;;;;;;;4.95;3.55;;;;;;;;;;5035013;28;20137;-83
2023/03/20 02:59:40;;;;;;;5.90;3.45;;;;;;;;;;5034928;28;20053;-84
2023/03/20 03:02:09;;;;;;;5.15;3.50;;;;;;;;;;5034921;28;20054;-83
2023/03/20 03:04:39;;;;;;;5.55;3.40;;;;;;;;;;5034914;28;20034;-84
2023/03/20 03:07:07;;;;;;;;;;;;;;;;;;5023746;28;20077;-83
2023/03/20 03:09:39;;;;;;;5.95;3.45;;;;;;;;;;5025027;28;19921;-84
2023/03/20 03:12:18;;;;;;;6.70;3.53;;;;;;;;;;5033956;28;20381;-83
2023/03/20 03:14:47;;;;;;;5.90;3.40;;;;;;;;;;5029999;28;20042;-84
2023/03/20 03:17:16;;;;;;;5.90;3.50;;;;;;;;;;5029520;28;20046;-83
2023/03/20 03:19:47;;;;;;;5.60;3.40;;;;;;;;;;5030777;28;20077;-82
2023/03/20 03:22:15;;;;;;;5.45;3.25;;;;;;;;;;5034204;28;20053;-84
2023/03/20 03:24:46;;;;;;;4.85;2.95;;;;;;;;;;5033903;28;20072;-85
2023/03/20 03:27:18;;;;;;;4.50;2.80;;;;;;;;;;5037785;28;20077;-86
2023/03/20 03:29:49;;;;;;;5.25;2.78;;;;;;;;;;5035054;28;20057;-84
2023/03/20 03:32:25;;;;;;;4.85;2.80;;;;;;;;;;5027838;28;20274;-83
2023/03/20 03:34:52;;;;;;;4.72;2.65;;;;;;;;;;5028813;28;20145;-85
2023/03/20 03:37:26;;;;;;;5.25;2.70;;;;;;;;;;5025940;28;20042;-82
2023/03/20 03:40:04;;;;;;;4.85;2.83;;;;;;;;;;5027650;28;20105;-84
2023/03/20 03:42:35;;;;;;;4.43;2.35;;;;;;;;;;5024587;28;20110;-83
2023/03/20 03:45:08;;;;;;;3.97;2.40;;;;;;;;;;5024656;28;20104;-82
2023/03/20 03:47:39;;;;;;;4.57;2.65;;;;;;;;;;5028773;28;20084;-84
2023/03/20 03:50:12;;;;;;;4.25;2.28;;;;;;;;;;5027398;28;20049;-83
2023/03/20 03:52:41;;;;;;;4.45;2.50;;;;;;;;;;5026541;28;20061;-82
2023/03/20 03:55:14;;;;;;;5.13;2.65;;;;;;;;;;5026635;28;20052;-84
2023/03/20 03:57:45;;;;;;;4.78;2.78;;;;;;;;;;5027308;28;20050;-83
2023/03/20 04:00:15;;;;;;;4.57;2.40;;;;;;;;;;5028748;28;20057;-83
2023/03/20 04:02:43;;;;;;;4.03;2.33;;;;;;;;;;5028061;28;20049;-83
2023/03/20 04:05:11;;;;;;;4.75;3.30;;;;;;;;;;5027690;28;20053;-85
2023/03/20 04:07:38;;;;;;;5.78;2.97;;;;;;;;;;5013942;28;20051;-83
2023/03/20 04:10:06;;;;;;;5.22;2.72;;;;;;;;;;5030581;28;20084;-83
2023/03/20 04:12:36;;;;;;;4.35;2.75;;;;;;;;;;5031490;28;20073;-83
2023/03/20 04:15:04;;;;;;;5.45;2.72;;;;;;;;;;5024341;28;20543;-82
2023/03/20 04:17:31;;;;;;;5.72;3.17;;;;;;;;;;5030818;28;20511;-82
2023/03/20 04:19:57;;;;;;;4.55;2.60;;;;;;;;;;5032396;28;20057;-82
2023/03/20 04:22:24;;;;;;;5.30;2.70;;;;;;;;;;5033182;28;20046;-83
2023/03/20 04:24:51;;;;;;;5.05;3.10;;;;;;;;;;5032069;28;20402;-83
2023/03/20 04:27:18;;;;;;;4.60;2.85;;;;;;;;;;5032654;28;20057;-82
2023/03/20 04:29:46;;;;;;;4.60;2.78;;;;;;;;;;5032753;28;20046;-81
2023/03/20 04:32:13;;;;;;;5.65;2.97;;;;;;;;;;5033719;28;20081;-82
2023/03/20 04:34:40;;;;;;;5.40;3.25;;;;;;;;;;5032684;28;20077;-82
2023/03/20 04:37:07;;;;;;;6.03;3.00;;;;;;;;;;5032039;28;20115;-82
2023/03/20 04:39:35;;;;;;;6.05;2.90;;;;;;;;;;5032756;28;20046;-86
2023/03/20 04:42:02;;;;;;;9.15;3.55;;;;;;;;;;5032511;28;20042;-83
2023/03/20 04:44:29;;;;;;;4.35;2.72;;;;;;;;;;5033249;28;20046;-82
2023/03/20 04:46:57;;;;;;;5.60;3.10;;;;;;;;;;5030770;28;20106;-83
2023/03/20 04:49:24;;;;;;;7.03;3.47;;;;;;;;;;5031806;28;20497;-82
2023/03/20 04:51:51;;;;;;;5.65;3.00;;;;;;;;;;5031585;28;20038;-82
2023/03/20 04:54:17;;;;;;;5.40;3.10;;;;;;;;;;5030441;28;20054;-83
2023/03/20 04:56:44;;;;;;;5.05;2.90;;;;;;;;;;5014616;28;20129;-83
2023/03/20 04:59:11;;;;;;;5.78;3.20;;;;;;;;;;5032030;28;20042;-83
2023/03/20 05:01:37;;;;;;;6.55;3.00;;;;;;;;;;5037473;28;20230;-82
2023/03/20 05:04:06;;;;;;;6.82;3.63;;;;;;;;;;5038974;28;20037;-85
2023/03/20 05:06:33;;;;;;;5.88;3.92;;;;;;;;;;5035055;28;20072;-82
2023/03/20 05:09:00;;;;;;;5.85;3.33;;;;;;;;;;5037987;28;20033;-83
2023/03/20 05:11:28;;;;;;;7.30;4.63;;;;;;;;;;5035462;28;20081;-83
2023/03/20 05:17:30;;;;;;;7.88;4.45;;;;;;;;;;5019813;28;20056;-80
2023/03/20 05:26:58;;;;;;;10.05;5.15;;;;;;;;;;5035701;23;20471;-77
2023/03/20 05:29:24;;;;;;;9.85;5.18;;;;;;;;;;5056160;28;20049;-77
2023/03/20 05:31:51;;;;;;;8.43;4.72;;;;;;;;;;5055190;28;20114;-77
2023/03/20 05:34:18;;;;;;;8.90;5.25;;;;;;;;;;5055036;28;20471;-76
2023/03/20 05:36:46;;;;;;;8.60;5.07;;;;;;;;;;5047703;28;20077;-76
2023/03/20 05:39:13;;;;;;;8.57;4.80;;;;;;;;;;5051650;28;20132;-76
2023/03/20 05:41:40;;;;;;;9.30;5.22;;;;;;;;;;5049915;28;20071;-77
2023/03/20 05:44:06;;;;;;;8.30;5.20;;;;;;;;;;5053582;28;20124;-76
2023/03/20 05:46:33;;;;;;;8.55;5.28;;;;;;;;;;5038299;28;20204;-77
2023/03/20 05:49:00;;;;;;;10.50;5.68;;;;;;;;;;5054049;28;20045;-76
2023/03/20 05:51:27;;;;;;;9.20;5.43;;;;;;;;;;5043505;28;20046;-76
2023/03/20 05:53:55;;;;;;;9.38;5.70;;;;;;;;;;5055287;28;20389;-77
2023/03/20 05:56:22;;;;;;;10.15;6.05;;;;;;;;;;5043014;28;20049;-76
2023/03/20 05:58:48;;;;;;;9.57;5.70;;;;;;;;;;5042677;28;20088;-76
2023/03/20 06:01:20;;;;;;;10.10;5.90;;;;;;;;;;5034169;28;20191;-77
2023/03/20 06:03:46;;;;;;;10.15;6.10;;;;;;;;;;5033943;28;20045;-76
2023/03/20 06:06:13;;;;;;;9.95;6.30;;;;;;;;;;5033933;28;20077;-77
2023/03/20 06:08:40;;;;;;;10.82;5.90;;;;;;;;;;5040828;28;20128;-77
2023/03/20 06:11:09;;;;;;;10.75;6.57;;;;;;;;;;5039983;28;20393;-77
2023/03/20 06:13:35;;;;;;;9.90;6.32;;;;;;;;;;5046788;28;20145;-77
2023/03/20 06:16:02;;;;;;;10.35;6.60;;;;;;;;;;5050072;28;20053;-77
2023/03/20 06:18:29;;;;;;;10.80;6.65;;;;;;;;;;5048343;28;20128;-76
2023/03/20 06:20:57;;;;;;;10.38;6.53;;;;;;;;;;5037375;28;20125;-76
2023/03/20 06:23:24;;;;;;;11.63;6.97;;;;;;;;;;5033139;28;20530;-77
2023/03/20 06:25:51;;;;;;;11.35;7.03;;;;;;;;;;5046521;28;20056;-76
2023/03/20 06:28:19;;;;;;;9.13;6.10;;;;;;;;;;5052551;28;20072;-77
2023/03/20 06:30:46;;;;;;;13.13;7.15;;;;;;;;;;5042798;28;20119;-77
2023/03/20 06:33:12;;;;;;;12.30;7.53;;;;;;;;;;5036720;28;20467;-76
2023/03/20 06:35:39;;;;;;;11.02;7.05;;;;;;;;;;5053609;28;20053;-76
2023/03/20 06:38:06;;;;;;;11.25;7.32;;;;;;;;;;5039534;28;20120;-76
2023/03/20 06:40:33;;;;;;;12.10;7.78;;;;;;;;;;5044339;28;20043;-76
2023/03/20 06:43:00;;;;;;;11.63;7.38;;;;;;;;;;5052247;28;20083;-76
2023/03/20 06:45:28;;;;;;;10.90;6.75;;;;;;;;;;5032180;28;20053;-76
2023/03/20 06:47:55;;;;;;;13.68;7.65;;;;;;;;;;5032364;28;20136;-77
2023/03/20 06:50:21;;;;;;;12.02;7.80;;;;;;;;;;5046085;28;20075;-77
2023/03/20 06:52:48;;;;;;;12.63;7.32;;;;;;;;;;5039062;28;20049;-77
2023/03/20 06:55:15;;;;;;;11.48;7.45;;;;;;;;;;5048357;28;20072;-77
2023/03/20 06:57:42;;;;;;;12.57;7.30;;;;;;;;;;5052122;28;20049;-76
2023/03/20 07:00:10;;;;;;;14.25;7.75;;;;;;;;;;5040775;28;20132;-76
2023/03/20 07:02:38;;;;;;;11.65;7.75;;;;;;;;;;5032076;28;20111;-76
2023/03/20 07:05:09;;;;;;;11.65;7.28;;;;;;;;;;5032395;28;20081;-76
2023/03/20 07:07:35;;;;;;;;;;;;;;;;;;5017129;28;20421;-77
2023/03/20 07:10:03;;;;;;;11.20;7.78;;;;;;;;;;5014900;28;20498;-76
2023/03/20 07:12:29;;;;;;;11.85;8.18;;;;;;;;;;5041379;28;20423;-76
2023/03/20 07:14:56;;;;;;;13.70;8.20;;;;;;;;;;5034585;28;20060;-76
2023/03/20 07:17:23;;;;;;;11.73;8.40;;;;;;;;;;5036542;28;20114;-77
2023/03/20 07:19:52;;;;;;;13.95;7.43;;;;;;;;;;5043849;28;20431;-77
2023/03/20 07:22:22;;;;;;;13.63;7.70;;;;;;;;;;5044102;28;20053;-77
2023/03/20 07:24:55;;;;;;;11.57;8.05;;;;;;;;;;5036225;28;20107;-77
2023/03/20 07:27:22;;;;;;;12.70;7.22;;;;;;;;;;5035204;28;20103;-76
2023/03/20 07:29:49;;;;;;;10.90;6.80;;;;;;;;;;5035404;28;20054;-76
2023/03/20 07:32:16;;;;;;;12.45;8.18;;;;;;;;;;5045959;28;20075;-77
2023/03/20 07:34:43;;;;;;;11.43;8.00;;;;;;;;;;5054931;28;20052;-77
2023/03/20 07:37:11;;;;;;;11.90;7.75;;;;;;;;;;5055443;28;20136;-77
2023/03/20 07:39:37;;;;;;;11.73;8.15;;;;;;;;;;5054203;28;20049;-77
2023/03/20 07:42:05;;;;;;;14.32;7.88;;;;;;;;;;5048687;28;20076;-77
2023/03/20 07:44:32;;;;;;;12.68;7.68;;;;;;;;;;5036483;28;20056;-76
2023/03/20 07:46:59;;;;;;;13.15;8.05;;;;;;;;;;5038332;28;20087;-76
2023/03/20 07:49:26;;;;;;;11.75;8.10;;;;;;;;;;5039354;28;20191;-76
2023/03/20 07:51:53;;;;;;;11.75;6.97;;;;;;;;;;5047962;28;20048;-78
2023/03/20 07:54:21;;;;;;;10.52;7.07;;;;;;;;;;5022899;28;20537;-78
2023/03/20 07:56:49;;;;;;;13.57;7.38;;;;;;;;;;5022997;28;20046;-78
2023/03/20 07:59:16;;;;;;;14.50;7.75;;;;;;;;;;5023157;28;20057;-77
2023/03/20 08:01:43;;;;;;;11.85;7.45;;;;;;;;;;5026475;28;20049;-78
2023/03/20 08:04:10;;;;;;;13.38;7.07;;;;;;;;;;5044809;28;20056;-78
2023/03/20 08:06:38;;;;;;;13.13;8.30;;;;;;;;;;5038502;28;20053;-75
2023/03/20 08:09:05;;;;;;;10.73;7.03;;;;;;;;;;5043977;28;20045;-76
2023/03/20 08:11:33;;;;;;;11.57;7.55;;;;;;;;;;5029006;28;20093;-76
2023/03/20 08:13:59;;;;;;;9.90;6.25;;;;;;;;;;5025539;28;20057;-76
2023/03/20 08:16:26;;;;;;;10.95;7.05;;;;;;;;;;5038542;28;20046;-76
2023/03/20 08:18:57;;;;;;;10.93;6.55;;;;;;;;;;5038270;28;20125;-76
2023/03/20 08:21:23;;;;;;;10.02;6.63;;;;;;;;;;5038354;28;20083;-76
2023/03/20 08:23:50;;;;;;;10.18;7.20;;;;;;;;;;5040553;28;20107;-77
2023/03/20 08:26:17;;;;;;;13.27;7.20;;;;;;;;;;5042729;28;20101;-77
2023/03/20 08:28:45;;;;;;;11.18;7.20;;;;;;;;;;5044601;28;20056;-80
2023/03/20 08:31:11;;;;;;;9.20;7.00;;;;;;;;;;5054888;28;20084;-82
2023/03/20 08:33:38;;;;;;;9.45;6.28;;;;;;;;;;5056898;28;20055;-79
2023/03/20 08:36:06;;;;;;;10.13;6.68;;;;;;;;;;5052868;28;20088;-79
2023/03/20 08:38:32;;;;;;;10.48;6.45;;;;;;;;;;5054061;28;20190;-78
2023/03/20 08:40:59;;;;;;;9.80;6.60;;;;;;;;;;5057868;28;20053;-81
2023/03/20 08:43:26;;;;;;;11.40;7.15;;;;;;;;;;5052096;28;20590;-77
2023/03/20 08:45:54;;;;;;;9.88;6.75;;;;;;;;;;5043171;28;20083;-76
2023/03/20 08:48:21;;;;;;;10.88;7.10;;;;;;;;;;5036384;28;20050;-83
2023/03/20 08:50:48;;;;;;;11.10;7.25;;;;;;;;;;5035908;28;20129;-75
2023/03/20 08:53:17;;;;;;;9.80;5.72;;;;;;;;;;5041335;28;20526;-76
2023/03/20 08:55:48;;;;;;;7.82;5.35;;;;;;;;;;5043991;28;20056;-75
2023/03/20 08:58:14;;;;;;;7.95;5.63;;;;;;;;;;5038025;28;20428;-75
2023/03/20 09:00:42;;;;;;;8.40;5.82;;;;;;;;;;5043734;28;20049;-75
2023/03/20 09:03:14;;;;;;;7.63;4.85;;;;;;;;;;5038670;28;20049;-76
2023/03/20 09:05:41;;;;;;;10.23;6.72;;;;;;;;;;5039803;28;20072;-77
2023/03/20 09:08:07;;;;;;;7.07;4.82;;;;;;;;;;5032412;28;20124;-76
2023/03/20 09:10:36;;;;;;;8.82;6.03;;;;;;;;;;5038493;28;20069;-77
2023/03/20 09:13:03;;;;;;;7.60;4.63;;;;;;;;;;5041209;28;20898;-76
2023/03/20 09:15:30;;;;;;;7.18;4.45;;;;;;;;;;5046072;28;20095;-76
2023/03/20 09:17:57;;;;;;;8.13;4.82;;;;;;;;;;5036239;28;20046;-75
2023/03/20 09:20:25;;;;;;;6.43;4.20;;;;;;;;;;5036477;28;20049;-75
2023/03/20 09:22:52;;;;;;;6.90;4.35;;;;;;;;;;5036118;28;20077;-76
2023/03/20 09:25:19;;;;;;;8.20;4.40;;;;;;;;;;5052796;28;20114;-76
2023/03/20 09:27:45;;;;;;;6.03;3.72;;;;;;;;;;5025460;28;20092;-76
2023/03/20 09:30:13;;;;;;;6.40;4.50;;;;;;;;;;5016973;28;20085;-76
2023/03/20 09:32:40;;;;;;;7.60;4.72;;;;;;;;;;5032658;28;20046;-77
2023/03/20 09:35:07;;;;;;;7.60;4.45;;;;;;;;;;5036564;28;20571;-76
2023/03/20 09:37:35;;;;;;;10.32;4.80;;;;;;;;;;5035592;28;20098;-76
2023/03/20 09:40:02;;;;;;;8.90;5.35;;;;;;;;;;5041915;28;20046;-76
2023/03/20 09:42:42;;;;;;;7.38;4.70;;;;;;;;;;5041567;28;20302;-76
2023/03/20 09:45:14;;;;;;;7.50;3.95;;;;;;;;;;5036854;28;20053;-76
2023/03/20 09:47:46;;;;;;;6.85;4.53;;;;;;;;;;5036954;28;20053;-76
2023/03/20 09:50:24;;;;;;;7.53;4.68;;;;;;;;;;5036836;28;20077;-76
2023/03/20 09:52:59;;;;;;;7.80;4.53;;;;;;;;;;5037558;28;20492;-77
2023/03/20 09:55:33;;;;;;;6.05;3.90;;;;;;;;;;5043769;28;20078;-76
2023/03/20 09:58:07;;;;;;;8.10;4.75;;;;;;;;;;5035891;28;20132;-76
2023/03/20 10:00:35;;;;;;;7.63;5.10;;;;;;;;;;5037275;28;20045;-76
2023/03/20 10:03:05;;;;;;;6.68;3.70;;;;;;;;;;5037419;28;20416;-76
2023/03/20 10:05:37;;;;;;;7.85;4.20;;;;;;;;;;5037871;28;20042;-76
2023/03/20 10:08:11;;;;;;;6.63;4.30;;;;;;;;;;5043551;28;20045;-76
2023/03/20 10:10:49;;;;;;;6.32;3.70;;;;;;;;;;5034128;28;20113;-76
2023/03/20 10:13:43;;;;;;;6.43;3.63;;;;;;;;;;5032058;28;20041;-76
2023/03/20 10:16:24;;;;;;;5.47;3.53;;;;;;;;;;5032551;28;20140;-76
2023/03/20 10:18:55;;;;;;;;;;;;;;;;;;5035785;28;20585;-76
2023/03/20 10:21:29;;;;;;;7.75;3.65;;;;;;;;;;5038647;28;19921;-75
2023/03/20 10:24:03;;;;;;;7.28;3.67;;;;;;;;;;5015929;28;20041;-76
2023/03/20 10:26:33;;;;;;;7.60;4.20;;;;;;;;;;5017425;28;20047;-75
2023/03/20 10:29:02;;;;;;;6.53;3.67;;;;;;;;;;5032115;28;20045;-75
2023/03/20 10:31:46;;;;;;;5.95;3.30;;;;;;;;;;5033270;28;20046;-75
2023/03/20 10:34:31;;;;;;;5.60;3.40;;;;;;;;;;5039499;28;20080;-75
2023/03/20 10:37:12;;;;;;;5.32;3.47;;;;;;;;;;5026279;28;20055;-75
2023/03/20 10:39:52;;;;;;;6.68;3.80;;;;;;;;;;5034793;28;20048;-75
2023/03/20 10:42:23;;;;;;;5.13;3.30;;;;;;;;;;5030589;28;20045;-75
2023/03/20 10:44:54;;;;;;;5.55;2.90;;;;;;;;;;5020596;28;20050;-76
2023/03/20 10:47:25;;;;;;;4.60;2.67;;;;;;;;;;5013456;28;20085;-75
2023/03/20 10:49:54;;;;;;;;;;;;;;;;;;5014310;28;20049;-75
2023/03/20 10:52:25;;;;;;;5.10;2.53;;;;;;;;;;5031985;28;19944;-75
2023/03/20 10:54:58;;;;;;;4.10;2.30;;;;;;;;;;5053416;28;20120;-75
2023/03/20 10:57:27;;;;;;;4.15;2.22;;;;;;;;;;5032345;28;20136;-75
2023/03/20 10:59:56;;;;;;;4.93;2.70;;;;;;;;;;5038185;28;21785;-76
2023/03/20 11:02:27;;;;;;;3.17;1.77;;;;;;;;;;5041460;28;20068;-75
2023/03/20 11:04:54;;;;;;;3.47;2.15;;;;;;;;;;5041812;28;20147;-75
2023/03/20 11:07:25;;;;;;;3.83;1.98;;;;;;;;;;5039665;28;20076;-76
2023/03/20 11:12:47;;;;;;;3.85;2.20;;;;;;;;;;5157496;27;20371;-59
2023/03/20 11:15:23;;;;;;;2.75;1.50;;;;;;;;;;5140049;27;20656;-57
2023/03/20 11:17:54;;;;;;;4.70;2.25;;;;;;;;;;5148007;27;20047;-56
2023/03/20 11:20:21;;;;;;;4.88;1.98;;;;;;;;;;5148063;27;20055;-56
2023/03/20 11:22:50;;;;;;;4.97;2.28;;;;;;;;;;5132107;27;20047;-57
2023/03/20 11:25:25;;;;;;;2.50;1.42;;;;;;;;;;5132803;27;20463;-57
2023/03/20 11:27:55;;;;;;;2.95;1.60;;;;;;;;;;5140667;27;20043;-56
2023/03/20 11:30:22;;;;;;;3.75;1.80;;;;;;;;;;5148984;27;20043;-57
2023/03/20 11:32:50;;;;;;;3.13;1.52;;;;;;;;;;5137324;27;20057;-56
2023/03/20 11:35:26;;;;;;;3.22;1.90;;;;;;;;;;5127692;28;20055;-55
2023/03/20 11:37:55;;;;;;;3.55;1.60;;;;;;;;;;5131104;27;20100;-57
2023/03/20 11:40:24;;;;;;;4.15;2.13;;;;;;;;;;5148972;27;20096;-55
2023/03/20 11:42:57;;;;;;;6.72;2.28;;;;;;;;;;5149192;27;20096;-57
2023/03/20 11:45:26;;;;;;;2.90;1.55;;;;;;;;;;5149079;27;20050;-57
2023/03/20 11:47:55;;;;;;;3.35;1.67;;;;;;;;;;5136115;27;20058;-58
2023/03/20 11:50:30;;;;;;;2.67;1.42;;;;;;;;;;5148538;27;20051;-59
2023/03/20 11:52:57;;;;;;;3.42;1.52;;;;;;;;;;5147667;27;20059;-59
2023/03/20 11:55:27;;;;;;;2.72;1.40;;;;;;;;;;5147616;27;20046;-57
2023/03/20 11:57:59;;;;;;;3.17;1.50;;;;;;;;;;5147804;27;20051;-58
2023/03/20 12:00:28;;;;;;;3.00;1.77;;;;;;;;;;5148206;27;20130;-58
2023/03/20 12:02:56;;;;;;;3.17;1.45;;;;;;;;;;5148063;27;20050;-59
2023/03/20 12:05:32;;;;;;;3.40;1.80;;;;;;;;;;5147885;27;20477;-57
2023/03/20 12:08:03;;;;;;;3.05;1.88;;;;;;;;;;5128089;27;20084;-58
2023/03/20 12:10:36;;;;;;;2.85;1.70;;;;;;;;;;5127714;27;20465;-57
2023/03/20 12:13:10;;;;;;;3.30;1.88;;;;;;;;;;5136773;27;20175;-69
2023/03/20 12:15:40;;;;;;;3.90;1.65;;;;;;;;;;5127935;27;20055;-56
2023/03/20 12:18:15;;;;;;;3.67;2.00;;;;;;;;;;5136279;27;20076;-57
2023/03/20 12:20:46;;;;;;;3.78;1.70;;;;;;;;;;5127074;28;20054;-57
2023/03/20 12:23:21;;;;;;;3.80;2.10;;;;;;;;;;5118689;27;20043;-58
2023/03/20 12:25:55;;;;;;;2.72;1.85;;;;;;;;;;5113163;28;20125;-57
2023/03/20 12:28:27;;;;;;;3.03;1.50;;;;;;;;;;5114379;27;20056;-58
2023/03/20 12:31:04;;;;;;;3.35;1.83;;;;;;;;;;5113812;27;20047;-56
2023/03/20 12:33:46;;;;;;;2.63;1.60;;;;;;;;;;5133341;27;20571;-58
2023/03/20 12:36:15;;;;;;;4.18;2.08;;;;;;;;;;5127660;27;20508;-67
2023/03/20 12:38:43;;;;;;;4.25;2.50;;;;;;;;;;5113305;28;20527;-65
2023/03/20 12:41:13;;;;;;;4.65;2.42;;;;;;;;;;5113116;28;20123;-58
2023/03/20 12:44:01;;;;;;;3.60;2.10;;;;;;;;;;5132871;27;20112;-57
2023/03/20 12:46:37;;;;;;;4.15;2.20;;;;;;;;;;5133233;27;20061;-58
2023/03/20 12:49:18;;;;;;;3.65;2.50;;;;;;;;;;5133512;27;20047;-57
2023/03/20 12:51:57;;;;;;;4.78;2.28;;;;;;;;;;5119234;27;20473;-59
2023/03/20 12:54:35;;;;;;;3.90;2.03;;;;;;;;;;5127870;27;20043;-55
2023/03/20 12:57:13;;;;;;;4.65;2.20;;;;;;;;;;5122743;27;20039;-57
2023/03/20 12:59:52;;;;;;;3.75;2.00;;;;;;;;;;5113092;27;20043;-56
2023/03/20 13:02:34;;;;;;;4.10;1.90;;;;;;;;;;5118522;27;20062;-56
2023/03/20 13:05:17;;;;;;;3.22;1.80;;;;;;;;;;5120107;27;20055;-56
2023/03/20 13:08:00;;;;;;;3.60;2.00;;;;;;;;;;5127782;27;20078;-56
2023/03/20 13:10:33;;;;;;;2.88;1.50;;;;;;;;;;5119764;27;20503;-57
2023/03/20 13:13:09;;;;;;;4.15;1.80;;;;;;;;;;5117486;27;20500;-60
2023/03/20 13:15:49;;;;;;;4.75;2.00;;;;;;;;;;5120110;27;20648;-58
2023/03/20 13:18:20;;;;;;;;;;;;;;;;;;5118251;27;20044;-57
2023/03/20 13:20:51;;;;;;;3.53;1.70;;;;;;;;;;5112587;28;20279;-57
2023/03/20 13:23:23;;;;;;;3.97;2.42;;;;;;;;;;5119536;27;20479;-57
2023/03/20 13:26:17;;;;;;;3.72;2.10;;;;;;;;;;5115614;27;20083;-56
2023/03/20 13:28:52;;;;;;;3.25;2.20;;;;;;;;;;5109579;27;20047;-57
2023/03/20 13:31:34;;;;;;;3.33;1.88;;;;;;;;;;5112701;28;20507;-57
2023/03/20 13:34:12;;;;;;;3.40;2.28;;;;;;;;;;5111154;28;20048;-57
2023/03/20 13:36:51;;;;;;;3.17;2.00;;;;;;;;;;5111833;28;20079;-56
2023/03/20 13:39:24;;;;;;;5.93;2.08;;;;;;;;;;5119816;27;20046;-56
2023/03/20 13:41:53;;;;;;;4.65;2.15;;;;;;;;;;5132524;27;20111;-57
2023/03/20 13:44:23;;;;;;;4.70;2.60;;;;;;;;;;5115717;27;20063;-57
2023/03/20 13:46:54;;;;;;;3.73;1.87;;;;;;;;;;5131936;27;20462;-56
2023/03/20 13:49:30;;;;;;;4.43;2.00;;;;;;;;;;5131063;27;20141;-58
2023/03/20 13:52:03;;;;;;;3.45;2.00;;;;;;;;;;5122162;27;20044;-57
2023/03/20 13:54:46;;;;;;;3.40;1.80;;;;;;;;;;5124186;27;20051;-56
2023/03/20 13:57:26;;;;;;;3.20;1.90;;;;;;;;;;5130671;27;20061;-57
2023/03/20 14:00:18;;;;;;;3.97;1.80;;;;;;;;;;5111405;28;20146;-57
2023/03/20 14:03:06;;;;;;;3.50;1.90;;;;;;;;;;5128178;27;20142;-56
2023/03/20 14:05:36;;;;;;;4.07;2.35;;;;;;;;;;5111157;28;20401;-57
2023/03/20 14:08:32;;;;;;;6.22;2.25;;;;;;;;;;5130541;27;20059;-56
2023/03/20 14:11:14;;;;;;;4.40;1.88;;;;;;;;;;5130907;27;20470;-58
2023/03/20 14:13:45;;;;;;;2.88;1.80;;;;;;;;;;5111255;28;20051;-60
2023/03/20 14:16:14;;;;;;;;;;;;;;;;;;5112304;28;20138;-57
2023/03/20 14:18:44;;;;;;;3.70;1.90;;;;;;;;;;5127342;27;19920;-55
2023/03/20 14:21:13;;;;;;;10.03;4.87;;;;;;;;;;5128155;27;20618;-58
2023/03/20 14:23:45;;;;;;;4.53;2.30;;;;;;;;;;5110915;28;20268;-57
2023/03/20 14:26:21;;;;;;;3.47;1.70;;;;;;;;;;5110601;27;20051;-57
2023/03/20 14:29:00;;;;;;;4.88;1.80;;;;;;;;;;5110738;28;20050;-59
2023/03/20 14:31:31;;;;;;;4.22;2.45;;;;;;;;;;5110643;28;20131;-57
2023/03/20 14:34:08;;;;;;;3.67;1.95;;;;;;;;;;5110939;28;20081;-59
2023/03/20 14:37:00;;;;;;;4.72;2.20;;;;;;;;;;5110694;28;20090;-55
2023/03/20 14:39:45;;;;;;;5.47;2.35;;;;;;;;;;5107439;28;20079;-58
2023/03/20 14:42:26;;;;;;;4.30;2.22;;;;;;;;;;5110876;28;20536;-57
2023/03/20 14:45:20;;;;;;;6.03;2.00;;;;;;;;;;5110754;28;20450;-58
2023/03/20 14:47:53;;;;;;;4.00;1.70;;;;;;;;;;5110885;28;20055;-56
2023/03/20 14:50:26;;;;;;;4.43;2.35;;;;;;;;;;5110963;28;20051;-56
2023/03/20 14:53:00;;;;;;;4.18;1.98;;;;;;;;;;5110655;28;20052;-59
2023/03/20 14:55:33;;;;;;;5.13;2.13;;;;;;;;;;5110107;28;20044;-60
2023/03/20 14:58:26;;;;;;;3.35;1.67;;;;;;;;;;5110667;28;20061;-56
2023/03/20 15:00:53;;;;;;;4.38;1.85;;;;;;;;;;5119511;27;20095;-56
2023/03/20 15:03:23;;;;;;;4.45;2.00;;;;;;;;;;5121731;27;20158;-55
2023/03/20 15:05:57;;;;;;;3.80;1.88;;;;;;;;;;5112042;28;20055;-57
2023/03/20 15:08:28;;;;;;;5.40;1.95;;;;;;;;;;5110929;28;20536;-57
2023/03/20 15:10:56;;;;;;;;;;;;;;;;;;5110949;28;20496;-55
2023/03/20 15:13:25;;;;;;;5.13;2.13;;;;;;;;;;5114158;28;19920;-56
2023/03/20 15:15:55;;;;;;;3.75;2.13;;;;;;;;;;5138609;27;20047;-56
2023/03/20 15:18:24;;;;;;;3.90;2.00;;;;;;;;;;5151862;27;20085;-53
2023/03/20 15:20:53;;;;;;;3.30;1.52;;;;;;;;;;5139943;27;20052;-56